Terminal Aerodrome Forecast
Issued by NWS Wilmington, OH

Home | Current Version | Previous Version | Text Only | Print | Product List | Glossary On
Versions: 1 2 3 4 5 6 7 8 9 10 11 12 13
000
FTUS41 KILN 121500 AAA
TAFCMH
TAF AMD
KCMH 121500Z 1215/1312 21005KT P6SM BKN150
     FM122300 23008KT P6SM VCSH BKN060
     FM130300 21006KT P6SM BKN100
     FM130900 20010KT P6SM BKN060=

USA.gov is the U.S. government's official web portal to all federal, state and local government web resources and services.